Terminal Aerodrome Forecast
Issued by NWS Portland, ME

Home | Current Version | Previous Version | Text Only | Print | Product List | Glossary On
Versions: 1 2 3 4 5 6 7 8 9 10 11 12 13 14 15 16 17 18 19 20
000
FTUS41 KGYX 181137
TAFCON
TAF
KCON 181137Z 1812/1912 29009KT P6SM -RA BKN025 OVC060
     FM181300 30010KT P6SM OVC050
     FM181700 30010G17KT P6SM BKN050
     FM190200 30006KT P6SM OVC100=

USA.gov is the U.S. government's official web portal to all federal, state and local government web resources and services.